Time;durP1;ratioP1;P1;durP2;ratioP2;P2;SDS_P1;SDS_P2;PMS_P1;PMS_P2;Temp;Humidity;BMP_temperature;BMP_pressure;BME280_temperature;BME280_humidity;BME280_pressure;Samples;Min_cycle;Max_cycle;Signal;HPM_P1;HPM_P2
2022/11/19 00:00:15;;;;;;;1.07;0.50;;;10.00;99.90;;;;;;5073279;28;20247;-56
2022/11/19 00:02:42;;;;;;;1.27;0.50;;;10.00;99.90;;;;;;5073433;28;20205;-57
2022/11/19 00:05:09;;;;;;;1.10;0.43;;;10.00;99.90;;;;;;5073211;28;20208;-56
2022/11/19 00:07:36;;;;;;;1.00;0.70;;;9.90;99.90;;;;;;5072682;28;20268;-60
2022/11/19 00:10:05;;;;;;;0.95;0.60;;;9.90;99.90;;;;;;5072480;28;20450;-59
2022/11/19 00:15:16;;;;;;;1.23;0.40;;;10.00;99.90;;;;;;5073135;28;20207;-56
2022/11/19 00:17:43;;;;;;;1.17;0.60;;;10.00;99.90;;;;;;5072144;28;20569;-56
2022/11/19 00:20:10;;;;;;;0.83;0.53;;;10.00;99.90;;;;;;5073036;28;20332;-56
2022/11/19 00:22:37;;;;;;;1.20;0.90;;;9.90;99.90;;;;;;5073063;28;20200;-56
2022/11/19 00:25:07;;;;;;;1.63;0.70;;;9.90;99.90;;;;;;5072764;28;20291;-55
2022/11/19 00:27:33;;;;;;;2.03;1.00;;;10.00;99.90;;;;;;5072201;28;20286;-56
2022/11/19 00:30:01;;;;;;;2.57;0.80;;;10.00;99.90;;;;;;5072603;28;20228;-56
2022/11/19 00:32:28;;;;;;;2.20;0.87;;;9.90;99.90;;;;;;5072606;28;20204;-56
2022/11/19 00:34:55;;;;;;;1.27;0.90;;;10.00;99.90;;;;;;5072941;28;20212;-56
2022/11/19 00:37:22;;;;;;;2.17;1.20;;;9.90;99.90;;;;;;5072204;28;20300;-55
2022/11/19 00:39:49;;;;;;;1.60;0.93;;;10.00;99.90;;;;;;5072890;28;20239;-55
2022/11/19 00:42:17;;;;;;;2.07;1.30;;;10.00;99.90;;;;;;5072736;28;20205;-56
2022/11/19 00:44:44;;;;;;;2.40;1.30;;;10.00;99.90;;;;;;5072490;28;20213;-56
2022/11/19 00:47:11;;;;;;;2.40;1.03;;;10.00;99.90;;;;;;5072216;28;20639;-56
2022/11/19 00:49:38;;;;;;;1.30;1.00;;;10.00;99.90;;;;;;5072514;28;20242;-56
2022/11/19 00:52:05;;;;;;;2.03;1.27;;;10.00;99.90;;;;;;5072839;28;20300;-56
2022/11/19 00:54:32;;;;;;;2.03;1.07;;;10.00;99.90;;;;;;5072521;28;20211;-56
2022/11/19 00:56:59;;;;;;;1.30;1.07;;;10.00;99.90;;;;;;5072284;28;20297;-55
2022/11/19 00:59:27;;;;;;;1.20;1.00;;;10.00;99.90;;;;;;5072812;28;20315;-58
2022/11/19 01:01:54;;;;;;;1.63;0.90;;;10.00;99.90;;;;;;5072538;28;20209;-58
2022/11/19 01:04:21;;;;;;;1.40;1.20;;;9.90;99.90;;;;;;5072539;28;20205;-58
2022/11/19 01:06:48;;;;;;;1.37;0.90;;;9.80;99.90;;;;;;5071432;28;20217;-59
2022/11/19 01:09:15;;;;;;;1.33;0.83;;;9.90;99.90;;;;;;5072286;28;20685;-58
2022/11/19 01:11:42;;;;;;;1.20;0.90;;;9.90;99.90;;;;;;5072262;28;20292;-58
2022/11/19 01:14:09;;;;;;;1.03;0.70;;;9.90;99.90;;;;;;5072358;28;20291;-58
2022/11/19 01:16:39;;;;;;;2.20;0.80;;;9.90;99.90;;;;;;5072127;28;20228;-59
2022/11/19 01:19:07;;;;;;;3.60;0.90;;;10.00;99.90;;;;;;5072482;28;20776;-58
2022/11/19 01:21:36;;;;;;;1.23;0.70;;;10.00;99.90;;;;;;5072068;28;20208;-58
2022/11/19 01:24:03;;;;;;;1.10;0.80;;;10.00;99.90;;;;;;5072029;28;20207;-58
2022/11/19 01:26:31;;;;;;;2.07;1.00;;;10.00;99.90;;;;;;5071489;28;20303;-58
2022/11/19 01:28:58;;;;;;;1.70;1.13;;;10.00;99.90;;;;;;5072213;28;20209;-58
2022/11/19 01:31:27;;;;;;;0.90;0.80;;;10.00;99.90;;;;;;5071861;28;20295;-58
2022/11/19 01:33:56;;;;;;;1.03;0.90;;;10.00;99.90;;;;;;5072082;28;20201;-58
2022/11/19 01:36:25;;;;;;;2.33;0.93;;;10.10;99.90;;;;;;5071592;28;20205;-58
2022/11/19 01:38:53;;;;;;;1.60;1.20;;;10.00;99.90;;;;;;5071721;28;20236;-58
2022/11/19 01:41:21;;;;;;;2.17;0.80;;;10.10;99.90;;;;;;5072006;28;20248;-58
2022/11/19 01:43:50;;;;;;;1.57;1.10;;;10.10;99.90;;;;;;5072238;28;20205;-58
2022/11/19 01:46:18;;;;;;;2.17;1.10;;;10.20;99.90;;;;;;5071444;28;20251;-59
2022/11/19 01:48:49;;;;;;;2.10;1.00;;;10.10;99.90;;;;;;5071836;28;20201;-58
2022/11/19 01:51:24;;;;;;;1.73;1.00;;;10.20;99.90;;;;;;5071842;28;20236;-58
2022/11/19 01:53:53;;;;;;;1.87;1.07;;;10.10;99.90;;;;;;5071929;28;20276;-58
2022/11/19 01:56:22;;;;;;;2.87;1.40;;;10.00;99.90;;;;;;5071316;28;20299;-58
2022/11/19 01:58:53;;;;;;;2.23;1.47;;;10.10;99.90;;;;;;5071842;28;20237;-58
2022/11/19 02:01:20;;;;;;;2.87;1.20;;;10.10;99.90;;;;;;5071857;28;20216;-58
2022/11/19 02:03:48;;;;;;;2.40;1.30;;;10.20;99.90;;;;;;5071703;28;20297;-58
2022/11/19 02:06:15;;;;;;;1.80;1.30;;;10.30;99.90;;;;;;5071287;28;20244;-58
2022/11/19 02:08:45;;;;;;;2.50;1.37;;;10.30;99.90;;;;;;5071864;28;20209;-58
2022/11/19 02:11:39;;;;;;;2.27;1.00;;;10.30;99.90;;;;;;5071641;28;20780;-58
2022/11/19 02:14:21;;;;;;;1.77;1.17;;;10.30;99.90;;;;;;5073046;28;20208;-59
2022/11/19 02:16:56;;;;;;;1.80;0.90;;;10.30;99.90;;;;;;5075018;28;20200;-60
2022/11/19 02:20:07;;;;;;;1.23;0.90;;;10.30;99.90;;;;;;5075397;28;20273;-59
2022/11/19 02:23:02;;;;;;;1.83;1.10;;;10.30;99.90;;;;;;5013168;28;20273;-58
2022/11/19 02:25:47;;;;;;;1.70;1.23;;;10.20;99.90;;;;;;5072446;28;20204;-58
2022/11/19 02:28:29;;;;;;;1.60;0.80;;;10.20;99.90;;;;;;5074707;28;20228;-58
2022/11/19 02:31:01;;;;;;;2.63;1.50;;;10.20;99.90;;;;;;5074605;28;20236;-58
2022/11/19 02:33:34;;;;;;;3.03;1.00;;;10.20;99.90;;;;;;5075377;28;20213;-58
2022/11/19 02:36:09;;;;;;;1.60;0.73;;;10.20;99.90;;;;;;5074588;28;20208;-58
2022/11/19 02:38:41;;;;;;;1.50;0.73;;;10.20;99.90;;;;;;5075130;28;20767;-58
2022/11/19 02:46:49;;;;;;;1.70;0.87;;;10.20;99.90;;;;;;5074146;28;20315;-58
2022/11/19 02:49:18;;;;;;;1.80;0.77;;;10.20;99.90;;;;;;5075359;28;20359;-58
2022/11/19 02:51:47;;;;;;;2.17;0.67;;;10.20;99.90;;;;;;5074509;28;20216;-58
2022/11/19 02:54:16;;;;;;;1.00;0.77;;;10.20;99.90;;;;;;5074579;28;20579;-58
2022/11/19 02:56:50;;;;;;;2.20;1.20;;;10.20;99.90;;;;;;5074224;28;20296;-58
2022/11/19 03:04:54;;;;;;;1.33;0.60;;;10.20;99.90;;;;;;5074479;28;20276;-58
2022/11/19 03:07:21;;;;;;;1.03;0.70;;;10.20;99.90;;;;;;5074065;28;20304;-58
2022/11/19 03:09:52;;;;;;;1.63;0.80;;;10.20;99.90;;;;;;5074184;28;20595;-58
2022/11/19 03:12:24;;;;;;;1.70;0.70;;;10.10;99.90;;;;;;5074427;28;20217;-58
2022/11/19 03:18:00;;;;;;;0.93;0.70;;;10.10;99.90;;;;;;5073885;28;20723;-59
2022/11/19 03:20:33;;;;;;;1.80;0.70;;;10.20;99.90;;;;;;5074270;28;20274;-59
2022/11/19 03:23:04;;;;;;;1.33;0.80;;;10.20;99.90;;;;;;5074290;28;20205;-59
2022/11/19 03:25:35;;;;;;;1.80;1.07;;;10.20;99.90;;;;;;5074265;28;20209;-59
2022/11/19 03:28:07;;;;;;;1.60;0.80;;;10.20;99.90;;;;;;5073969;28;20565;-59
2022/11/19 03:30:34;;;;;;;2.50;0.67;;;10.20;99.90;;;;;;5074070;28;20235;-59
2022/11/19 03:33:06;;;;;;;0.97;0.73;;;10.20;99.90;;;;;;5074102;28;20700;-59
2022/11/19 03:35:40;;;;;;;0.90;0.70;;;10.20;99.90;;;;;;5073893;28;20232;-59
2022/11/19 03:38:11;;;;;;;0.87;0.50;;;10.20;99.90;;;;;;5073652;28;20275;-59
2022/11/19 03:40:39;;;;;;;1.07;0.73;;;10.30;99.90;;;;;;5074038;28;20225;-59
2022/11/19 03:43:09;;;;;;;1.93;1.00;;;10.30;99.90;;;;;;5073851;28;20200;-59
2022/11/19 03:45:43;;;;;;;1.77;1.03;;;10.30;99.90;;;;;;5073734;28;20215;-59
2022/11/19 03:48:12;;;;;;;1.57;0.80;;;10.30;99.90;;;;;;5073036;28;20728;-59
2022/11/19 03:50:47;;;;;;;2.60;0.97;;;10.30;99.90;;;;;;5073973;28;20311;-59
2022/11/19 03:53:14;;;;;;;2.17;0.80;;;10.30;99.90;;;;;;5073720;28;20200;-59
2022/11/19 03:55:46;;;;;;;2.80;0.90;;;10.30;99.90;;;;;;5073759;28;20685;-59
2022/11/19 03:58:13;;;;;;;1.87;0.97;;;10.30;99.90;;;;;;5073082;28;20232;-59
2022/11/19 04:00:40;;;;;;;2.03;0.70;;;10.30;99.90;;;;;;5073164;28;20631;-59
2022/11/19 04:03:07;;;;;;;3.27;0.80;;;10.30;99.90;;;;;;5073636;28;20273;-60
2022/11/19 04:05:35;;;;;;;1.00;0.60;;;10.30;99.90;;;;;;5073409;28;20225;-59
2022/11/19 04:08:02;;;;;;;1.37;0.87;;;10.30;99.90;;;;;;5073083;28;20298;-59
2022/11/19 04:10:29;;;;;;;1.23;0.80;;;10.30;99.90;;;;;;5073168;28;20624;-59
2022/11/19 04:12:56;;;;;;;2.40;1.00;;;10.30;99.90;;;;;;5073174;28;21003;-59
2022/11/19 04:15:23;;;;;;;2.07;0.83;;;10.20;99.90;;;;;;5073454;28;20244;-59
2022/11/19 04:17:50;;;;;;;4.10;1.33;;;10.20;99.90;;;;;;5072622;28;20689;-59
2022/11/19 04:20:17;;;;;;;4.77;1.37;;;10.20;99.90;;;;;;5072919;28;20225;-59
2022/11/19 04:22:45;;;;;;;1.00;0.90;;;10.30;99.90;;;;;;5073055;28;20215;-60
2022/11/19 04:25:12;;;;;;;4.37;1.20;;;10.40;99.90;;;;;;5072686;28;20215;-59
2022/11/19 04:27:39;;;;;;;2.00;1.00;;;10.50;99.90;;;;;;5072294;28;20205;-59
2022/11/19 04:30:07;;;;;;;1.73;0.90;;;10.40;99.90;;;;;;5072478;28;20229;-59
2022/11/19 04:32:34;;;;;;;1.23;0.80;;;10.50;99.90;;;;;;5072970;28;20215;-59
2022/11/19 04:35:01;;;;;;;1.77;0.83;;;10.50;99.90;;;;;;5072698;28;20243;-59
2022/11/19 04:37:27;;;;;;;2.27;1.10;;;10.50;99.90;;;;;;5071887;28;20201;-59
2022/11/19 04:39:56;;;;;;;1.70;0.80;;;10.40;99.90;;;;;;5072665;28;20216;-60
2022/11/19 04:42:22;;;;;;;2.10;0.90;;;10.40;99.90;;;;;;5072530;28;20209;-59
2022/11/19 04:44:49;;;;;;;4.63;1.90;;;10.40;99.90;;;;;;5072498;28;20207;-59
2022/11/19 04:47:16;;;;;;;1.43;1.00;;;10.40;99.90;;;;;;5071797;28;20637;-59
2022/11/19 04:49:43;;;;;;;2.00;1.13;;;10.30;99.90;;;;;;5072271;28;20671;-59
2022/11/19 04:52:10;;;;;;;1.13;0.77;;;10.30;99.90;;;;;;5072808;28;20205;-59
2022/11/19 04:54:37;;;;;;;1.20;1.10;;;10.30;99.90;;;;;;5072554;28;20201;-59
2022/11/19 04:57:05;;;;;;;1.43;0.87;;;10.20;99.90;;;;;;5072155;28;20205;-59
2022/11/19 04:59:32;;;;;;;3.17;1.00;;;10.20;99.90;;;;;;5072859;28;20262;-59
2022/11/19 05:01:59;;;;;;;1.73;0.90;;;10.20;99.90;;;;;;5072438;28;20209;-60
2022/11/19 05:04:26;;;;;;;3.43;1.10;;;10.20;99.90;;;;;;5072636;28;20211;-59
2022/11/19 05:06:53;;;;;;;2.17;1.50;;;10.30;99.90;;;;;;5072276;28;20299;-59
2022/11/19 05:09:19;;;;;;;2.33;1.10;;;10.30;99.90;;;;;;5073128;28;20261;-59
2022/11/19 05:11:46;;;;;;;2.03;1.30;;;10.30;99.90;;;;;;5073736;28;20235;-59
2022/11/19 05:14:14;;;;;;;1.23;0.80;;;10.40;99.90;;;;;;5073541;28;20240;-59
2022/11/19 05:16:41;;;;;;;1.87;1.30;;;10.40;99.90;;;;;;5073084;28;20230;-59
2022/11/19 05:19:08;;;;;;;1.90;1.07;;;10.40;99.90;;;;;;5073736;28;20251;-59
2022/11/19 05:21:35;;;;;;;1.53;1.10;;;10.40;99.90;;;;;;5073378;28;20287;-59
2022/11/19 05:24:02;;;;;;;2.87;1.20;;;10.40;99.90;;;;;;5073571;28;20243;-59
2022/11/19 05:26:29;;;;;;;2.83;1.20;;;10.40;99.90;;;;;;5073687;28;20213;-59
2022/11/19 05:28:56;;;;;;;1.80;1.10;;;10.50;99.90;;;;;;5074320;28;20204;-59
2022/11/19 05:31:24;;;;;;;2.10;1.27;;;10.50;99.90;;;;;;5073814;28;20256;-59
2022/11/19 05:33:51;;;;;;;1.60;1.27;;;10.50;99.90;;;;;;5074166;28;20666;-59
2022/11/19 05:36:18;;;;;;;1.60;1.33;;;10.40;99.90;;;;;;5073046;28;20243;-59
2022/11/19 05:38:45;;;;;;;3.87;1.63;;;10.50;99.90;;;;;;5073642;28;20204;-59
2022/11/19 05:41:11;;;;;;;2.97;2.33;;;10.40;99.90;;;;;;5073890;28;20696;-59
2022/11/19 05:43:38;;;;;;;4.67;2.27;;;10.40;99.90;;;;;;5074153;28;20288;-59
2022/11/19 05:46:05;;;;;;;1.87;1.20;;;10.40;99.90;;;;;;5074135;28;20211;-59
2022/11/19 05:48:34;;;;;;;2.00;1.27;;;10.40;99.90;;;;;;5074917;28;20204;-59
2022/11/19 05:51:00;;;;;;;2.10;1.47;;;10.40;99.90;;;;;;5078440;28;20229;-59
2022/11/19 05:53:27;;;;;;;3.87;1.50;;;10.40;99.90;;;;;;5078854;28;20288;-59
2022/11/19 05:55:54;;;;;;;2.30;1.60;;;10.40;99.90;;;;;;5077647;28;20342;-59
2022/11/19 05:58:21;;;;;;;2.87;1.37;;;10.50;99.90;;;;;;5076385;28;20724;-59
2022/11/19 06:00:48;;;;;;;3.03;1.30;;;10.50;99.90;;;;;;5076928;28;20221;-59
2022/11/19 06:03:15;;;;;;;2.07;1.60;;;10.50;99.90;;;;;;5076632;28;20236;-59
2022/11/19 06:05:43;;;;;;;1.73;1.50;;;10.50;99.90;;;;;;5076585;28;20691;-59
2022/11/19 06:08:10;;;;;;;16.77;9.83;;;10.50;99.90;;;;;;5076224;28;20201;-59
2022/11/19 06:10:37;;;;;;;2.83;1.73;;;10.40;99.90;;;;;;5076181;28;20235;-59
2022/11/19 06:13:04;;;;;;;2.73;1.90;;;10.50;99.90;;;;;;5075975;28;20293;-59
2022/11/19 06:15:31;;;;;;;2.23;1.30;;;10.50;99.90;;;;;;5076069;28;20205;-59
2022/11/19 06:17:58;;;;;;;3.30;1.53;;;10.50;99.90;;;;;;5075118;28;20654;-59
2022/11/19 06:20:25;;;;;;;1.53;1.33;;;10.40;99.90;;;;;;5075822;28;20227;-59
2022/11/19 06:22:53;;;;;;;2.90;1.80;;;10.40;99.90;;;;;;5075664;28;20292;-59
2022/11/19 06:25:20;;;;;;;1.80;1.10;;;10.40;99.90;;;;;;5075830;28;20205;-59
2022/11/19 06:27:47;;;;;;;3.37;1.60;;;10.40;99.90;;;;;;5075345;28;20209;-59
2022/11/19 06:30:14;;;;;;;4.67;2.60;;;10.30;99.90;;;;;;5075178;28;20709;-59
2022/11/19 06:32:41;;;;;;;4.20;1.93;;;10.30;99.90;;;;;;5075399;28;20212;-59
2022/11/19 06:35:09;;;;;;;1.53;1.33;;;10.30;99.90;;;;;;5075866;28;20212;-59
2022/11/19 06:37:36;;;;;;;2.80;1.80;;;10.30;99.90;;;;;;5075443;28;20292;-60
2022/11/19 06:40:05;;;;;;;2.47;1.50;;;10.40;99.90;;;;;;5076039;28;20312;-59
2022/11/19 06:42:38;;;;;;;2.67;1.50;;;10.30;99.90;;;;;;5075498;28;20205;-59
2022/11/19 06:45:07;;;;;;;2.20;1.57;;;10.30;99.90;;;;;;5075688;28;20201;-59
2022/11/19 06:47:34;;;;;;;8.70;4.03;;;10.30;99.90;;;;;;5075180;28;20492;-59
2022/11/19 06:50:01;;;;;;;3.97;2.37;;;10.40;99.90;;;;;;5075310;28;20221;-58
2022/11/19 06:52:28;;;;;;;1.73;1.63;;;10.40;99.90;;;;;;5075191;28;20228;-59
2022/11/19 06:54:55;;;;;;;2.10;1.27;;;10.40;99.90;;;;;;5075122;28;20205;-59
2022/11/19 06:57:24;;;;;;;1.80;1.30;;;10.50;99.90;;;;;;5074150;28;20247;-59
2022/11/19 06:59:51;;;;;;;3.17;1.97;;;10.50;99.90;;;;;;5074023;28;20233;-59
2022/11/19 07:02:18;;;;;;;60.27;36.90;;;10.50;99.90;;;;;;5074529;28;20201;-58
2022/11/19 07:04:45;;;;;;;4.07;3.20;;;10.50;99.90;;;;;;5074588;28;20219;-58
2022/11/19 07:07:12;;;;;;;10.80;5.77;;;10.50;99.90;;;;;;5073927;28;20213;-58
2022/11/19 07:09:39;;;;;;;2.47;1.87;;;10.50;99.90;;;;;;5074394;28;20251;-58
2022/11/19 07:12:06;;;;;;;2.87;1.67;;;10.50;99.90;;;;;;5073937;28;20736;-58
2022/11/19 07:14:35;;;;;;;2.03;1.40;;;10.50;99.90;;;;;;5074493;28;20205;-58
2022/11/19 07:17:02;;;;;;;1.70;1.40;;;10.50;99.90;;;;;;5073692;28;20232;-59
2022/11/19 07:19:29;;;;;;;1.77;1.30;;;10.60;99.90;;;;;;5074479;28;20311;-59
2022/11/19 07:21:56;;;;;;;3.50;1.47;;;10.50;99.90;;;;;;5074216;28;20266;-58
2022/11/19 07:24:23;;;;;;;1.50;1.00;;;10.50;99.90;;;;;;5073914;28;20607;-58
2022/11/19 07:26:50;;;;;;;1.67;1.10;;;10.40;99.90;;;;;;5073681;28;20685;-59
2022/11/19 07:29:17;;;;;;;3.60;1.13;;;10.50;99.90;;;;;;5073804;28;20231;-59
2022/11/19 07:31:48;;;;;;;1.50;1.20;;;10.60;99.90;;;;;;5073954;28;20882;-58
2022/11/19 07:34:14;;;;;;;1.97;1.00;;;10.60;99.90;;;;;;5074024;28;20205;-58
2022/11/19 07:36:41;;;;;;;1.93;1.00;;;10.50;99.90;;;;;;5073239;28;20212;-59
2022/11/19 07:39:08;;;;;;;2.07;1.30;;;10.60;99.90;;;;;;5073517;28;20261;-56
2022/11/19 07:44:20;;;;;;;3.67;2.37;;;10.70;99.90;;;;;;5073553;28;20208;-59
2022/11/19 07:46:48;;;;;;;4.23;2.67;;;10.80;99.90;;;;;;5072977;28;20299;-59
2022/11/19 07:49:15;;;;;;;2.27;1.60;;;10.80;99.90;;;;;;5073301;28;20308;-58
2022/11/19 07:51:42;;;;;;;1.50;1.30;;;10.80;99.90;;;;;;5073386;28;20221;-59
2022/11/19 07:54:11;;;;;;;2.23;1.17;;;10.70;99.90;;;;;;5073457;28;20258;-59
2022/11/19 07:56:37;;;;;;;2.03;1.13;;;10.70;99.90;;;;;;5073051;28;20213;-59
2022/11/19 07:59:04;;;;;;;2.93;1.40;;;10.80;99.90;;;;;;5073437;28;20233;-59
2022/11/19 08:01:31;;;;;;;1.70;1.13;;;10.80;99.90;;;;;;5073264;28;20692;-58
2022/11/19 08:03:59;;;;;;;1.40;1.27;;;10.80;99.90;;;;;;5073392;28;20205;-58
2022/11/19 08:06:28;;;;;;;1.47;1.33;;;10.90;99.90;;;;;;5072980;28;20239;-58
2022/11/19 08:08:56;;;;;;;1.43;1.10;;;10.90;99.90;;;;;;5073136;28;20204;-59
2022/11/19 08:11:23;;;;;;;2.77;1.17;;;11.00;99.90;;;;;;5072724;28;20228;-59
2022/11/19 08:13:50;;;;;;;1.37;1.10;;;11.20;99.90;;;;;;5073145;28;20300;-58
2022/11/19 08:18:11;;;;;;;1.87;1.50;;;11.40;99.90;;;;;;5072860;28;20661;-58
2022/11/19 08:19:08;;;;;;;2.10;1.40;;;11.60;99.90;;;;;;5072754;28;20224;-58
2022/11/19 08:21:35;;;;;;;1.13;1.00;;;11.70;99.90;;;;;;5073232;28;20205;-58
2022/11/19 08:24:02;;;;;;;2.83;2.47;;;11.80;99.90;;;;;;5073010;28;20204;-58
2022/11/19 08:26:29;;;;;;;1.80;1.40;;;11.90;99.90;;;;;;5072705;28;20266;-59
2022/11/19 08:28:56;;;;;;;2.13;1.63;;;12.00;99.90;;;;;;5072810;28;20205;-58
2022/11/19 08:31:23;;;;;;;1.93;1.23;;;12.00;99.90;;;;;;5072697;28;20595;-58
2022/11/19 08:33:50;;;;;;;1.90;1.47;;;11.90;99.90;;;;;;5073160;28;20209;-58
2022/11/19 08:36:18;;;;;;;1.87;1.30;;;12.00;99.90;;;;;;5071928;28;20219;-59
2022/11/19 08:38:46;;;;;;;12.27;8.27;;;12.20;99.90;;;;;;5067781;28;20201;-61
2022/11/19 08:43:59;;;;;;;3.37;1.50;;;12.70;99.90;;;;;;5071117;28;20254;-60
2022/11/19 08:46:26;;;;;;;2.07;1.60;;;12.90;99.90;;;;;;5072016;28;20204;-58
2022/11/19 08:48:53;;;;;;;2.57;1.50;;;12.90;99.90;;;;;;5071879;28;20563;-58
2022/11/19 08:51:21;;;;;;;3.57;1.43;;;12.80;99.90;;;;;;5072254;28;20723;-59
2022/11/19 08:53:48;;;;;;;2.23;1.43;;;12.70;99.90;;;;;;5072374;28;20208;-58
2022/11/19 08:56:15;;;;;;;2.60;1.90;;;12.70;99.90;;;;;;5067220;28;20212;-59
2022/11/19 08:58:41;;;;;;;2.70;1.60;;;12.60;99.90;;;;;;5070678;28;20204;-59
2022/11/19 09:01:10;;;;;;;4.80;2.60;;;12.50;99.90;;;;;;5071169;28;20643;-59
2022/11/19 09:03:37;;;;;;;4.47;3.00;;;12.30;99.90;;;;;;5070390;28;20718;-59
2022/11/19 09:06:04;;;;;;;2.67;1.87;;;12.30;99.90;;;;;;5070499;28;20216;-59
2022/11/19 09:08:33;;;;;;;5.27;3.77;;;12.30;99.90;;;;;;5070384;28;20241;-59
2022/11/19 09:10:59;;;;;;;1.60;1.50;;;12.60;99.90;;;;;;5070695;28;20232;-59
2022/11/19 09:13:26;;;;;;;2.53;2.00;;;12.90;99.90;;;;;;5070560;28;20204;-59
2022/11/19 09:15:54;;;;;;;1.63;1.30;;;13.20;99.90;;;;;;5071306;28;20668;-59
2022/11/19 09:18:21;;;;;;;3.13;1.60;;;13.40;99.90;;;;;;5070292;28;20204;-59
2022/11/19 09:20:53;;;;;;;2.20;1.43;;;13.70;99.90;;;;;;5071075;28;20232;-59
2022/11/19 09:23:21;;;;;;;1.63;1.40;;;13.40;99.90;;;;;;5072208;28;20669;-59
2022/11/19 09:25:56;;;;;;;1.47;1.27;;;13.20;99.90;;;;;;5074976;28;20212;-62
2022/11/19 09:28:23;;;;;;;1.50;1.40;;;13.20;99.90;;;;;;5075223;28;20262;-64
2022/11/19 09:30:55;;;;;;;2.33;1.40;;;13.20;99.90;;;;;;5075509;28;20784;-61
2022/11/19 09:33:22;;;;;;;2.33;1.53;;;13.20;99.90;;;;;;5074940;28;20205;-61
2022/11/19 09:35:49;;;;;;;2.53;1.40;;;13.10;99.90;;;;;;5075401;28;20209;-58
2022/11/19 09:38:16;;;;;;;1.87;1.20;;;13.10;99.90;;;;;;5074698;28;20231;-59
2022/11/19 09:40:45;;;;;;;3.03;1.40;;;13.10;99.90;;;;;;5075263;28;20271;-60
2022/11/19 09:43:20;;;;;;;1.00;0.90;;;13.20;99.90;;;;;;5074113;28;20200;-59
2022/11/19 09:45:55;;;;;;;2.37;1.43;;;13.20;99.90;;;;;;5075142;28;20208;-59
2022/11/19 09:48:31;;;;;;;1.87;1.20;;;13.20;99.90;;;;;;5075172;28;20676;-59
2022/11/19 09:51:05;;;;;;;3.27;1.13;;;13.20;99.90;;;;;;5074935;28;20704;-59
2022/11/19 09:53:40;;;;;;;4.20;1.33;;;13.20;99.90;;;;;;5074899;28;20296;-59
2022/11/19 09:56:10;;;;;;;1.83;1.23;;;13.30;99.90;;;;;;5074933;28;20195;-61
2022/11/19 09:58:41;;;;;;;1.97;1.20;;;13.40;99.90;;;;;;5073734;28;20209;-58
2022/11/19 10:01:12;;;;;;;2.77;1.33;;;13.40;99.90;;;;;;5074813;28;20575;-58
2022/11/19 10:03:48;;;;;;;1.93;1.20;;;13.50;99.90;;;;;;5074323;28;20215;-59
2022/11/19 10:06:25;;;;;;;2.00;1.13;;;13.70;99.90;;;;;;5074826;28;20216;-60
2022/11/19 10:09:20;;;;;;;1.60;1.40;;;13.80;99.90;;;;;;5074303;28;20200;-60
2022/11/19 10:11:59;;;;;;;1.97;1.63;;;13.80;99.90;;;;;;5075626;28;20236;-60
2022/11/19 10:14:45;;;;;;;2.70;1.10;;;13.80;99.90;;;;;;5076794;28;20215;-64
2022/11/19 10:17:26;;;;;;;1.60;1.20;;;13.70;99.90;;;;;;5077732;28;20642;-61
2022/11/19 10:20:08;;;;;;;3.80;1.10;;;13.50;99.90;;;;;;5076423;28;20216;-59
2022/11/19 10:22:39;;;;;;;2.97;1.40;;;13.50;99.90;;;;;;5077303;28;20371;-62
2022/11/19 10:25:16;;;;;;;3.20;1.23;;;13.60;99.90;;;;;;5076255;28;20208;-61
2022/11/19 10:27:47;;;;;;;1.00;0.90;;;13.60;99.90;;;;;;5073858;28;20216;-63
2022/11/19 10:30:19;;;;;;;1.43;1.00;;;13.70;99.90;;;;;;5074571;28;20628;-60
2022/11/19 10:32:53;;;;;;;2.53;1.23;;;13.80;99.90;;;;;;5075848;28;20252;-61
2022/11/19 10:35:25;;;;;;;2.67;1.20;;;13.90;99.90;;;;;;5077673;28;20710;-59
2022/11/19 10:37:57;;;;;;;1.67;1.10;;;13.90;99.90;;;;;;5076095;28;20205;-58
2022/11/19 10:40:26;;;;;;;2.13;1.27;;;13.70;99.90;;;;;;5075743;28;20221;-58
2022/11/19 10:42:58;;;;;;;1.87;1.10;;;13.60;99.90;;;;;;5074925;28;20226;-60
2022/11/19 10:45:28;;;;;;;1.37;1.20;;;13.50;99.90;;;;;;5075770;28;20591;-57
2022/11/19 10:48:01;;;;;;;3.33;1.27;;;13.30;99.90;;;;;;5076904;28;20634;-59
2022/11/19 10:50:27;;;;;;;1.40;1.10;;;13.10;99.90;;;;;;5076461;28;20225;-58
2022/11/19 10:52:57;;;;;;;2.87;1.93;;;13.20;99.90;;;;;;5077319;28;20220;-58
2022/11/19 10:55:28;;;;;;;1.63;1.30;;;13.10;99.90;;;;;;5078581;28;20209;-58
2022/11/19 10:58:10;;;;;;;2.73;1.53;;;13.20;99.90;;;;;;5077478;28;20204;-58
2022/11/19 11:00:40;;;;;;;1.97;1.10;;;13.30;99.90;;;;;;5077119;28;20221;-58
2022/11/19 11:03:16;;;;;;;2.60;0.93;;;13.40;99.90;;;;;;5069146;28;20205;-58
2022/11/19 11:05:57;;;;;;;1.70;1.00;;;13.50;99.90;;;;;;5075543;28;20653;-58
2022/11/19 11:08:24;;;;;;;5.87;3.90;;;13.60;99.90;;;;;;5075592;28;20296;-57
2022/11/19 11:10:51;;;;;;;12.30;8.13;;;13.50;99.90;;;;;;5073586;28;20260;-58
2022/11/19 11:16:44;;;;;;;1.93;1.20;;;13.20;99.90;;;;;;5045655;28;20250;-58
2022/11/19 11:19:17;;;;;;;2.07;1.27;;;12.90;99.90;;;;;;5072320;28;20260;-57
2022/11/19 11:21:45;;;;;;;2.20;1.40;;;12.80;99.90;;;;;;5073671;28;20209;-59
2022/11/19 11:24:13;;;;;;;2.53;1.67;;;12.60;99.90;;;;;;5074215;28;20232;-59
2022/11/19 11:26:41;;;;;;;2.33;1.70;;;12.60;99.90;;;;;;5073714;28;20519;-57
2022/11/19 11:29:25;;;;;;;1.63;1.10;;;12.50;99.90;;;;;;5073446;28;20232;-58
2022/11/19 11:31:54;;;;;;;2.93;2.00;;;12.50;99.90;;;;;;5074075;28;20229;-58
2022/11/19 11:34:32;;;;;;;3.83;1.50;;;12.40;99.90;;;;;;5072496;28;20216;-58
2022/11/19 11:37:00;;;;;;;3.07;1.33;;;12.30;99.90;;;;;;5072564;28;20212;-58
2022/11/19 11:39:30;;;;;;;2.17;1.37;;;12.20;99.90;;;;;;5073953;28;20319;-58
2022/11/19 11:41:59;;;;;;;1.93;1.20;;;12.20;99.90;;;;;;5072919;28;20247;-57
2022/11/19 11:44:28;;;;;;;3.20;1.43;;;12.30;99.90;;;;;;5072817;28;20209;-58
2022/11/19 11:46:58;;;;;;;2.83;2.00;;;12.30;99.90;;;;;;5070940;28;20212;-59
2022/11/19 11:49:29;;;;;;;6.77;2.17;;;12.40;99.90;;;;;;5071857;28;20235;-59
2022/11/19 11:52:05;;;;;;;1.87;1.13;;;12.40;99.90;;;;;;5070496;28;20614;-58
2022/11/19 11:54:33;;;;;;;4.43;1.60;;;12.40;99.90;;;;;;5072279;28;20270;-58
2022/11/19 11:57:16;;;;;;;2.53;1.27;;;12.30;99.90;;;;;;5071424;28;20215;-57
2022/11/19 11:59:44;;;;;;;2.37;2.10;;;12.40;99.90;;;;;;5071494;28;20244;-57
2022/11/19 12:02:28;;;;;;;1.90;1.40;;;12.40;99.90;;;;;;5073955;28;20575;-59
2022/11/19 12:04:58;;;;;;;7.17;3.30;;;12.50;99.90;;;;;;5072530;28;20740;-59
2022/11/19 12:07:43;;;;;;;3.77;1.93;;;12.50;99.90;;;;;;5072003;28;20213;-58
2022/11/19 12:10:23;;;;;;;5.10;1.73;;;12.50;99.90;;;;;;5073134;28;20227;-58
2022/11/19 12:13:02;;;;;;;2.73;1.30;;;12.50;99.90;;;;;;5072406;28;20224;-58
2022/11/19 12:15:39;;;;;;;2.27;1.10;;;12.50;99.90;;;;;;5072513;28;20205;-60
2022/11/19 12:18:17;;;;;;;2.10;1.17;;;12.40;99.90;;;;;;5072127;28;20208;-58
2022/11/19 12:20:50;;;;;;;2.20;1.23;;;12.30;99.90;;;;;;5072621;28;20260;-59
2022/11/19 12:23:31;;;;;;;3.63;1.57;;;12.20;99.90;;;;;;5072505;28;20310;-58
2022/11/19 12:26:11;;;;;;;4.53;1.50;;;12.10;99.90;;;;;;5073094;28;20742;-57
2022/11/19 12:29:02;;;;;;;3.53;1.47;;;12.10;99.90;;;;;;5072411;28;20642;-54
2022/11/19 12:31:40;;;;;;;3.37;1.20;;;12.20;99.90;;;;;;5073386;28;20673;-54
2022/11/19 12:34:36;;;;;;;4.47;1.57;;;12.10;99.90;;;;;;5073583;28;20224;-54
2022/11/19 12:37:16;;;;;;;3.50;2.00;;;12.20;99.90;;;;;;5072612;28;20211;-54
2022/11/19 12:39:47;;;;;;;1.93;1.13;;;12.20;99.90;;;;;;5073085;28;20256;-54
2022/11/19 12:42:42;;;;;;;1.90;1.23;;;12.30;99.90;;;;;;5073033;28;20205;-55
2022/11/19 12:45:17;;;;;;;1.70;1.40;;;12.40;99.90;;;;;;5072879;28;20608;-54
2022/11/19 12:48:02;;;;;;;13.93;8.70;;;12.40;99.90;;;;;;5071976;28;20212;-55
2022/11/19 12:50:33;;;;;;;7.13;2.20;;;12.40;99.90;;;;;;5073595;28;20225;-54
2022/11/19 12:53:23;;;;;;;4.77;2.40;;;12.40;99.90;;;;;;5073528;28;20315;-55
2022/11/19 12:56:01;;;;;;;4.10;2.70;;;12.30;99.90;;;;;;5073868;28;20232;-55
2022/11/19 12:58:39;;;;;;;6.67;4.50;;;12.30;99.90;;;;;;5073100;28;20212;-55
2022/11/19 13:01:13;;;;;;;4.60;2.03;;;12.30;99.90;;;;;;5073295;28;20205;-56
2022/11/19 13:03:47;;;;;;;4.57;1.70;;;12.30;99.90;;;;;;5072864;28;20204;-55
2022/11/19 13:06:21;;;;;;;3.33;1.90;;;12.30;99.90;;;;;;5072731;28;20610;-55
2022/11/19 13:08:54;;;;;;;2.77;2.13;;;12.30;99.90;;;;;;5072112;28;20307;-54
2022/11/19 13:11:25;;;;;;;5.87;2.13;;;12.30;99.90;;;;;;5072838;28;20205;-55
2022/11/19 13:13:57;;;;;;;4.13;1.97;;;12.20;99.90;;;;;;5072279;28;20228;-55
2022/11/19 13:16:25;;;;;;;4.37;2.83;;;12.20;99.90;;;;;;5072685;28;20216;-55
2022/11/19 13:19:06;;;;;;;10.63;3.20;;;12.10;99.90;;;;;;5072179;28;20215;-60
2022/11/19 13:21:40;;;;;;;3.40;2.13;;;12.10;99.90;;;;;;5072320;28;20204;-54
2022/11/19 13:24:17;;;;;;;4.30;2.07;;;12.10;99.90;;;;;;5072863;28;20228;-56
2022/11/19 13:26:44;;;;;;;3.40;1.43;;;12.00;99.90;;;;;;5072894;28;20208;-54
2022/11/19 13:29:27;;;;;;;5.07;1.43;;;11.90;99.90;;;;;;5071622;28;20228;-56